Time;durP1;ratioP1;P1;durP2;ratioP2;P2;SDS_P1;SDS_P2;PMS_P1;PMS_P2;Temp;Humidity;BMP_temperature;BMP_pressure;BME280_temperature;BME280_humidity;BME280_pressure;Samples;Min_cycle;Max_cycle;Signal;HPM_P1;HPM_P2
2020/12/02 00:02:53;;;;;;;45.10;29.43;;;;;;;5.25;99.28;101549.81;5255470;23;20242;-74
2020/12/02 00:05:20;;;;;;;45.70;31.17;;;;;;;5.31;99.06;101534.66;5207689;23;20248;-74
2020/12/02 00:10:20;;;;;;;42.53;29.17;;;;;;;5.39;99.22;101540.63;5080517;23;20237;-73
2020/12/02 00:15:42;;;;;;;43.23;28.40;;;;;;;5.36;99.28;101532.97;5093397;23;20224;-75
2020/12/02 00:20:47;;;;;;;41.90;28.13;;;;;;;5.30;98.03;101533.84;5239012;23;20319;-75
2020/12/02 00:25:47;;;;;;;46.00;29.50;;;;;;;5.39;98.73;101529.84;4848955;29;20450;-75
2020/12/02 00:28:17;;;;;;;44.43;29.07;;;;;;;5.25;99.00;101538.22;4879157;29;20642;-74
2020/12/02 00:30:43;;;;;;;44.73;29.53;;;;;;;5.21;98.50;101535.13;4876908;29;20328;-74
2020/12/02 00:33:23;;;;;;;43.10;29.23;;;;;;;5.30;98.10;101544.63;4831698;29;20289;-74
2020/12/02 00:35:54;;;;;;;43.23;29.93;;;;;;;5.31;98.09;101540.91;4862790;29;20229;-75
2020/12/02 00:38:21;;;;;;;44.27;29.00;;;;;;;5.27;98.33;101545.03;4847416;29;20189;-75
2020/12/02 00:40:49;;;;;;;45.20;29.00;;;;;;;5.13;99.28;101543.47;4846074;29;20269;-72
2020/12/02 00:43:25;;;;;;;47.37;29.83;;;;;;;5.20;98.75;101538.03;4862563;29;20198;-75
2020/12/02 00:46:04;;;;;;;45.53;30.50;;;;;;;4.96;98.51;101536.09;4861463;29;20300;-74
2020/12/02 00:48:33;;;;;;;46.00;30.17;;;;;;;5.00;99.79;101540.03;4877542;29;21018;-74
2020/12/02 00:51:03;;;;;;;47.53;30.17;;;;;;;5.09;99.08;101547.66;4876540;29;20712;-75
2020/12/02 00:53:35;;;;;;;44.33;29.27;;;;;;;5.06;99.91;101542.69;4862483;29;20621;-75
2020/12/02 00:56:05;;;;;;;46.43;30.20;;;;;;;5.06;99.22;101542.69;4876962;29;20230;-74
2020/12/02 00:59:15;;;;;;;45.93;30.17;;;;;;;5.07;99.35;101549.72;4877480;29;20184;-72
2020/12/02 01:02:03;;;;;;;45.10;29.77;;;;;;;5.05;99.05;101548.28;4876586;29;20339;-72
2020/12/02 01:04:31;;;;;;;42.17;28.20;;;;;;;5.15;99.39;101546.78;4892389;29;20253;-73
2020/12/02 01:06:57;;;;;;;45.90;29.00;;;;;;;5.15;99.40;101549.47;4876873;29;20623;-72
2020/12/02 01:09:25;;;;;;;45.83;29.30;;;;;;;5.16;99.25;101548.41;4892983;29;20213;-72
2020/12/02 01:11:55;;;;;;;44.90;29.83;;;;;;;5.20;99.03;101541.59;4861336;29;20683;-73
2020/12/02 01:14:20;;;;;;;43.87;29.70;;;;;;;5.09;99.01;101544.97;4861783;29;20660;-72
2020/12/02 01:16:50;;;;;;;43.97;29.00;;;;;;;5.08;99.32;101537.91;4875597;29;20226;-73
2020/12/02 01:19:28;;;;;;;42.30;28.97;;;;;;;5.09;98.86;101542.25;4862018;29;20205;-72
2020/12/02 01:22:13;;;;;;;48.40;30.10;;;;;;;5.16;98.83;101543.03;4861159;29;20252;-72
2020/12/02 01:24:57;;;;;;;43.03;28.57;;;;;;;5.23;98.46;101549.22;4878144;29;20200;-75
2020/12/02 01:27:35;;;;;;;43.47;28.60;;;;;;;5.19;98.96;101548.00;4876237;29;20241;-73
2020/12/02 01:30:05;;;;;;;42.87;29.43;;;;;;;5.25;98.46;101552.50;4875735;29;20289;-73
2020/12/02 01:32:33;;;;;;;41.00;27.97;;;;;;;5.23;98.36;101540.31;4876594;29;20223;-73
2020/12/02 01:35:01;;;;;;;43.40;29.07;;;;;;;5.29;98.15;101542.94;4876774;29;20656;-73
2020/12/02 01:37:38;;;;;;;44.47;28.90;;;;;;;5.17;98.04;101542.00;4876233;29;20301;-73
2020/12/02 01:40:18;;;;;;;39.70;27.70;;;;;;;5.24;98.30;101534.72;4890574;29;20257;-73
2020/12/02 01:42:54;;;;;;;42.87;28.97;;;;;;;5.19;98.28;101537.22;4875490;29;20276;-73
2020/12/02 01:45:25;;;;;;;45.43;29.10;;;;;;;5.14;98.38;101537.03;4875979;29;20189;-73
2020/12/02 01:48:12;;;;;;;42.83;28.80;;;;;;;5.24;98.27;101545.50;4867772;29;20206;-73
2020/12/02 01:50:56;;;;;;;41.30;28.03;;;;;;;5.12;98.31;101535.63;4875029;29;20726;-73
2020/12/02 01:53:30;;;;;;;42.57;28.83;;;;;;;5.09;98.73;101534.19;4876628;29;20197;-73
2020/12/02 01:55:58;;;;;;;42.23;29.27;;;;;;;5.03;98.89;101529.63;4875961;29;20213;-73
2020/12/02 01:58:54;;;;;;;48.10;30.30;;;;;;;4.85;99.28;101525.19;4861179;29;20174;-72
2020/12/02 02:01:33;;;;;;;46.13;30.47;;;;;;;4.89;99.67;101523.72;4875386;29;20301;-73
2020/12/02 02:04:07;;;;;;;44.33;29.17;;;;;;;4.95;99.96;101525.56;4876639;29;20199;-73
2020/12/02 02:07:02;;;;;;;44.23;29.87;;;;;;;4.96;99.81;101532.59;4875624;29;20234;-73
2020/12/02 02:09:33;;;;;;;46.13;29.83;;;;;;;4.97;100.00;101520.78;4875330;29;20692;-73
2020/12/02 02:12:19;;;;;;;47.83;29.53;;;;;;;5.03;99.71;101512.66;4875638;29;20297;-74
2020/12/02 02:14:57;;;;;;;47.33;29.90;;;;;;;5.03;99.39;101516.19;4861445;29;20197;-73
2020/12/02 02:17:23;;;;;;;41.70;28.20;;;;;;;5.02;99.32;101521.81;4890383;29;20233;-73
2020/12/02 02:19:51;;;;;;;44.77;29.27;;;;;;;4.87;99.89;101515.03;4875801;29;20221;-73
2020/12/02 02:22:19;;;;;;;44.57;29.33;;;;;;;5.02;99.67;101513.72;4875500;29;20821;-73
2020/12/02 02:24:50;;;;;;;46.63;30.17;;;;;;;4.96;99.70;101519.94;4860222;29;20212;-73
2020/12/02 02:27:16;;;;;;;46.33;30.43;;;;;;;5.01;99.50;101517.44;4876199;29;20241;-73
2020/12/02 02:29:46;;;;;;;44.07;29.17;;;;;;;4.90;99.66;101522.69;4874501;29;20214;-73
2020/12/02 02:32:19;;;;;;;42.77;29.80;;;;;;;5.02;99.28;101509.16;4875340;29;20268;-73
2020/12/02 02:34:49;;;;;;;44.07;28.97;;;;;;;5.03;98.72;101509.97;4875832;29;20201;-73
2020/12/02 02:37:26;;;;;;;44.37;29.00;;;;;;;4.95;99.10;101512.13;4875237;29;20730;-73
2020/12/02 02:39:54;;;;;;;43.93;29.10;;;;;;;4.95;99.22;101510.25;4890728;29;20574;-73
2020/12/02 02:42:45;;;;;;;42.03;29.20;;;;;;;4.88;98.72;101506.75;4840848;29;20218;-73
2020/12/02 02:45:16;;;;;;;44.60;28.87;;;;;;;4.89;99.00;101504.88;4860256;29;20190;-73
2020/12/02 02:47:42;;;;;;;40.37;27.57;;;;;;;5.01;99.08;101507.50;4875517;29;20300;-73
2020/12/02 02:50:08;;;;;;;44.90;28.53;;;;;;;4.97;99.20;101498.22;4890031;29;20760;-73
2020/12/02 02:52:34;;;;;;;43.83;28.90;;;;;;;4.95;98.98;101504.03;4891012;29;20695;-73
2020/12/02 02:55:02;;;;;;;41.67;28.33;;;;;;;4.94;98.71;101507.75;4860388;29;20196;-73
2020/12/02 02:57:29;;;;;;;42.17;29.10;;;;;;;4.97;99.00;101504.66;4890440;29;20221;-73
2020/12/02 02:59:57;;;;;;;43.87;29.43;;;;;;;5.03;98.62;101501.91;4874796;29;20214;-73
2020/12/02 03:02:23;;;;;;;43.47;28.33;;;;;;;5.04;98.73;101499.00;4874613;29;20767;-73
2020/12/02 03:04:53;;;;;;;42.90;28.60;;;;;;;5.04;98.28;101509.78;4875105;29;20181;-73
2020/12/02 03:07:20;;;;;;;41.33;28.53;;;;;;;5.02;98.55;101503.78;4859484;29;20226;-73
2020/12/02 03:09:46;;;;;;;41.83;28.10;;;;;;;5.02;98.33;101493.00;4859664;29;20708;-73
2020/12/02 03:12:14;;;;;;;41.23;28.73;;;;;;;5.03;98.44;101494.66;4859379;29;20233;-73
2020/12/02 03:14:42;;;;;;;42.93;28.03;;;;;;;4.97;98.17;101490.13;4859882;29;20193;-73
2020/12/02 03:17:19;;;;;;;38.90;27.23;;;;;;;5.04;98.65;101485.53;4858940;29;20280;-73
2020/12/02 03:19:52;;;;;;;38.93;26.33;;;;;;;5.02;98.53;101487.63;4859783;29;20710;-73
2020/12/02 03:22:21;;;;;;;39.97;27.50;;;;;;;5.15;98.03;101498.31;4874708;29;20262;-73
2020/12/02 03:24:46;;;;;;;41.03;26.73;;;;;;;5.10;97.63;101490.06;4859622;29;20289;-73
2020/12/02 03:27:14;;;;;;;41.57;26.53;;;;;;;5.12;97.70;101498.72;4874594;29;20233;-73
2020/12/02 03:29:40;;;;;;;42.77;28.00;;;;;;;5.14;97.61;101496.66;4874773;29;20202;-73
2020/12/02 03:32:06;;;;;;;41.03;27.77;;;;;;;5.11;97.99;101486.34;4874711;29;20293;-73
2020/12/02 03:34:31;;;;;;;42.23;27.40;;;;;;;5.14;97.66;101485.06;4874877;29;20245;-74
2020/12/02 03:37:01;;;;;;;39.53;27.70;;;;;;;5.13;97.46;101497.72;4874526;29;20260;-73
2020/12/02 03:39:27;;;;;;;40.50;27.20;;;;;;;5.09;97.57;101493.81;4890365;29;20606;-73
2020/12/02 03:41:53;;;;;;;40.10;28.23;;;;;;;5.06;97.18;101494.22;4879085;29;20236;-73
2020/12/02 03:44:18;;;;;;;41.77;28.17;;;;;;;5.07;97.33;101485.13;4863350;29;20540;-73
2020/12/02 03:46:46;;;;;;;39.17;27.17;;;;;;;5.08;97.40;101484.06;4847336;29;20308;-74
2020/12/02 03:49:12;;;;;;;38.67;27.20;;;;;;;4.98;97.83;101485.56;4878514;29;20209;-73
2020/12/02 03:51:45;;;;;;;38.73;27.43;;;;;;;5.00;98.19;101489.72;4846716;29;20876;-73
2020/12/02 03:54:10;;;;;;;40.83;27.67;;;;;;;4.88;98.53;101487.91;4847957;29;20189;-73
2020/12/02 03:56:40;;;;;;;36.80;26.60;;;;;;;5.02;98.86;101487.63;4831937;29;20306;-73
2020/12/02 03:59:07;;;;;;;37.33;26.03;;;;;;;5.03;97.80;101483.88;4863536;29;20212;-73
2020/12/02 04:01:32;;;;;;;37.90;26.90;;;;;;;5.06;97.74;101483.47;4877285;29;20233;-73
2020/12/02 04:04:00;;;;;;;38.70;26.07;;;;;;;4.95;97.66;101486.00;4863356;29;20185;-73
2020/12/02 04:06:28;;;;;;;38.53;27.43;;;;;;;4.93;98.31;101484.56;4862724;29;20225;-73
2020/12/02 04:08:54;;;;;;;35.53;26.23;;;;;;;4.99;99.17;101484.53;4847295;29;20289;-73
2020/12/02 04:11:22;;;;;;;38.57;26.60;;;;;;;5.02;98.73;101476.88;4861844;29;20242;-73
2020/12/02 04:13:47;;;;;;;35.23;26.13;;;;;;;4.99;98.26;101469.22;4847644;29;20181;-73
2020/12/02 04:16:13;;;;;;;40.00;27.40;;;;;;;4.93;98.43;101477.34;4856778;29;20222;-73
2020/12/02 04:18:38;;;;;;;36.73;26.33;;;;;;;4.85;98.95;101477.56;4827611;29;20191;-73
2020/12/02 04:21:04;;;;;;;38.47;27.27;;;;;;;4.97;99.23;101477.72;4859724;29;20667;-73
2020/12/02 04:23:30;;;;;;;37.73;26.23;;;;;;;5.10;98.37;101475.78;4844280;29;20191;-73
2020/12/02 04:25:58;;;;;;;35.77;26.23;;;;;;;5.10;97.86;101471.22;4843887;29;20290;-73
2020/12/02 04:28:23;;;;;;;36.83;26.83;;;;;;;4.99;97.86;101465.69;4828752;29;20222;-73
2020/12/02 04:30:51;;;;;;;37.60;26.53;;;;;;;5.06;98.19;101466.50;4843419;29;20616;-73
2020/12/02 04:33:16;;;;;;;35.93;25.43;;;;;;;5.02;97.74;101458.03;4828929;29;20183;-73
2020/12/02 04:35:42;;;;;;;37.43;25.50;;;;;;;4.97;98.61;101461.59;4827834;29;20625;-73
2020/12/02 04:38:08;;;;;;;36.23;25.03;;;;;;;4.93;98.11;101455.81;4844146;29;20194;-73
2020/12/02 04:40:38;;;;;;;37.83;26.13;;;;;;;4.90;99.03;101444.66;4831644;29;20237;-73
2020/12/02 04:43:24;;;;;;;34.53;24.57;;;;;;;5.04;98.53;101447.03;4846798;29;20656;-73
2020/12/02 04:45:51;;;;;;;36.63;26.43;;;;;;;5.01;98.54;101442.06;4877251;29;20224;-73
2020/12/02 04:48:24;;;;;;;38.17;26.30;;;;;;;5.02;97.84;101443.75;4837795;29;20217;-73
2020/12/02 04:50:49;;;;;;;37.30;26.37;;;;;;;4.95;97.52;101442.13;4853693;29;20268;-73
2020/12/02 04:53:20;;;;;;;34.90;25.87;;;;;;;5.01;97.83;101440.19;4861647;29;20182;-73
2020/12/02 04:55:52;;;;;;;37.07;25.60;;;;;;;4.97;98.48;101447.06;4847063;29;20351;-73
2020/12/02 04:58:33;;;;;;;36.60;25.57;;;;;;;5.03;98.24;101446.19;4862582;29;20557;-73
2020/12/02 05:01:23;;;;;;;36.83;25.47;;;;;;;5.05;98.24;101454.06;4861062;29;20229;-73
2020/12/02 05:04:12;;;;;;;34.50;24.90;;;;;;;4.94;98.50;101443.16;4862091;29;20198;-73
2020/12/02 05:06:40;;;;;;;34.43;24.70;;;;;;;4.75;99.47;101442.25;4863972;29;20241;-73
2020/12/02 05:09:22;;;;;;;32.43;24.70;;;;;;;4.89;99.33;101440.28;4862530;29;20209;-73
2020/12/02 05:11:53;;;;;;;33.73;24.03;;;;;;;4.75;99.28;101441.44;4861081;29;20233;-73
2020/12/02 05:14:24;;;;;;;35.17;25.27;;;;;;;4.77;99.68;101448.22;4873794;29;20194;-73
2020/12/02 05:17:00;;;;;;;34.37;25.07;;;;;;;4.71;99.66;101445.59;4862261;29;20228;-72
2020/12/02 05:19:26;;;;;;;33.70;24.90;;;;;;;4.70;99.70;101447.44;4846655;29;20194;-73
2020/12/02 05:22:05;;;;;;;36.90;26.30;;;;;;;4.88;99.74;101444.03;4861712;29;20245;-72
2020/12/02 05:24:50;;;;;;;35.47;25.17;;;;;;;4.76;100.00;101443.06;4843794;29;20202;-73
2020/12/02 05:27:22;;;;;;;38.00;25.70;;;;;;;4.69;100.00;101439.59;4853352;29;20214;-73
2020/12/02 05:29:50;;;;;;;36.23;25.70;;;;;;;4.61;100.00;101439.81;4860882;29;20220;-74
2020/12/02 05:32:28;;;;;;;36.30;26.10;;;;;;;4.70;100.00;101443.94;4843089;29;20232;-73
2020/12/02 05:34:56;;;;;;;35.73;25.40;;;;;;;4.68;100.00;101446.00;4843814;29;20189;-73
2020/12/02 05:37:33;;;;;;;36.27;25.47;;;;;;;4.74;100.00;101445.13;4862695;29;20230;-74
2020/12/02 05:40:02;;;;;;;35.93;25.87;;;;;;;4.79;100.00;101448.84;4845703;29;20274;-73
2020/12/02 05:42:36;;;;;;;36.40;25.77;;;;;;;4.71;100.00;101456.34;4875420;29;20274;-73
2020/12/02 05:45:22;;;;;;;35.53;25.13;;;;;;;4.79;100.00;101445.31;4846319;29;20209;-73
2020/12/02 05:47:51;;;;;;;33.47;24.33;;;;;;;4.81;100.00;101445.94;4845847;29;20217;-73
2020/12/02 05:50:25;;;;;;;36.63;25.57;;;;;;;4.86;99.29;101454.19;4864962;29;20248;-73
2020/12/02 05:53:00;;;;;;;32.50;24.13;;;;;;;4.85;99.54;101441.78;4856164;29;20207;-74
2020/12/02 05:55:31;;;;;;;34.03;24.20;;;;;;;4.88;99.33;101444.03;4860355;29;20189;-73
2020/12/02 05:58:20;;;;;;;34.40;25.27;;;;;;;4.96;98.78;101447.28;4855370;29;20181;-74
2020/12/02 06:00:46;;;;;;;39.30;28.30;;;;;;;4.84;98.29;101446.34;4837150;29;20635;-75
2020/12/02 06:03:20;;;;;;;34.23;24.70;;;;;;;4.74;99.19;101440.59;4849909;29;21597;-74
2020/12/02 06:05:48;;;;;;;33.10;23.27;;;;;;;4.89;98.61;101442.97;4844007;29;20241;-74
2020/12/02 06:08:40;;;;;;;36.73;25.27;;;;;;;4.74;98.31;101448.69;4831286;29;20213;-73
2020/12/02 06:11:15;;;;;;;34.07;24.00;;;;;;;4.75;99.41;101450.31;4860279;29;20240;-74
2020/12/02 06:13:51;;;;;;;36.43;25.40;;;;;;;4.82;99.35;101444.91;4845828;29;20224;-74
2020/12/02 06:16:32;;;;;;;33.67;24.27;;;;;;;4.71;99.82;101445.59;4859456;29;20228;-73
2020/12/02 06:19:31;;;;;;;34.40;24.87;;;;;;;4.80;99.70;101439.75;4861420;29;20581;-75
2020/12/02 06:22:01;;;;;;;33.30;23.90;;;;;;;4.77;99.20;101444.72;4856841;29;20225;-73
2020/12/02 06:24:47;;;;;;;36.23;25.40;;;;;;;4.83;99.43;101443.84;4869702;29;20288;-76
2020/12/02 06:27:15;;;;;;;39.40;24.23;;;;;;;4.83;99.35;101438.47;4833715;29;20225;-74
2020/12/02 06:29:51;;;;;;;36.23;24.53;;;;;;;4.73;99.47;101436.25;4859596;29;20229;-74
2020/12/02 06:32:21;;;;;;;33.67;24.47;;;;;;;4.75;99.90;101426.09;4844810;29;20244;-74
2020/12/02 06:34:47;;;;;;;34.97;25.47;;;;;;;4.82;99.58;101420.69;4839035;29;20193;-74
2020/12/02 06:37:18;;;;;;;33.60;24.13;;;;;;;4.75;99.79;101419.91;4873629;29;20266;-75
2020/12/02 06:39:48;;;;;;;34.93;25.50;;;;;;;4.84;99.07;101413.22;4841603;29;20220;-75
2020/12/02 06:42:32;;;;;;;38.97;26.77;;;;;;;4.90;98.87;101417.72;4856338;29;20229;-75
2020/12/02 06:45:11;;;;;;;32.43;23.67;;;;;;;4.79;99.33;101415.72;4860420;29;20277;-76
2020/12/02 06:47:49;;;;;;;36.87;24.93;;;;;;;4.65;99.48;101403.38;4859763;29;20684;-74
2020/12/02 06:50:15;;;;;;;36.87;24.13;;;;;;;4.68;99.37;101408.34;4866483;29;20935;-75
2020/12/02 06:52:45;;;;;;;32.70;23.30;;;;;;;4.45;100.00;101412.59;4860899;29;20185;-74
2020/12/02 07:07:08;;;;;;;36.07;23.97;;;;;;;4.83;98.85;101407.00;4857533;29;20245;-74
2020/12/02 07:09:33;;;;;;;33.97;23.43;;;;;;;4.76;98.67;101408.06;4858191;29;20721;-75
2020/12/02 07:12:02;;;;;;;33.33;23.77;;;;;;;4.72;99.12;101409.56;4856603;29;20234;-74
2020/12/02 07:14:34;;;;;;;33.60;24.07;;;;;;;4.84;98.73;101414.03;4859243;29;20657;-74
2020/12/02 07:17:07;;;;;;;33.40;24.13;;;;;;;4.82;98.51;101410.75;4844826;29;20778;-75
2020/12/02 07:19:41;;;;;;;35.70;25.73;;;;;;;4.82;98.07;101415.31;4845183;29;20201;-74
2020/12/02 07:22:12;;;;;;;33.97;24.93;;;;;;;4.80;97.66;101417.38;4860283;29;20722;-74
2020/12/02 07:24:40;;;;;;;33.70;23.30;;;;;;;4.68;97.87;101422.63;4844600;29;20194;-74
2020/12/02 07:27:09;;;;;;;33.53;24.20;;;;;;;4.83;98.01;101416.94;4844344;29;20226;-75
2020/12/02 07:29:34;;;;;;;34.03;24.20;;;;;;;4.89;97.75;101421.44;4859742;29;20229;-74
2020/12/02 07:32:14;;;;;;;33.83;25.07;;;;;;;4.84;97.76;101405.16;4858995;29;20289;-75
2020/12/02 07:34:43;;;;;;;37.47;25.07;;;;;;;4.94;97.28;101413.56;4845729;29;20246;-75
2020/12/02 07:37:13;;;;;;;33.63;24.33;;;;;;;4.90;97.79;101417.72;4859839;29;20233;-75
2020/12/02 07:39:53;;;;;;;33.03;23.70;;;;;;;4.82;97.77;101410.75;4845007;29;20700;-74
2020/12/02 07:42:23;;;;;;;34.10;23.97;;;;;;;4.90;97.67;101413.16;4840466;29;20236;-75
2020/12/02 07:45:14;;;;;;;31.13;23.40;;;;;;;4.92;97.24;101415.66;4841601;29;20193;-76
2020/12/02 07:47:51;;;;;;;33.17;24.17;;;;;;;4.97;97.02;101414.78;4859472;29;20233;-74
2020/12/02 07:50:32;;;;;;;34.07;24.63;;;;;;;4.87;96.77;101412.78;4844462;29;20662;-74
2020/12/02 07:53:11;;;;;;;31.80;24.47;;;;;;;4.97;96.95;101412.06;4860763;29;20641;-75
2020/12/02 07:55:41;;;;;;;36.17;25.17;;;;;;;5.05;96.68;101411.84;4859095;29;20225;-75
2020/12/02 07:58:12;;;;;;;33.43;23.30;;;;;;;4.91;96.31;101408.59;4844550;29;20186;-74
2020/12/02 08:00:41;;;;;;;35.17;24.27;;;;;;;5.03;96.46;101400.44;4843526;29;20642;-74
2020/12/02 08:03:09;;;;;;;33.83;24.10;;;;;;;5.02;96.61;101397.97;4844226;29;20185;-74
2020/12/02 08:05:54;;;;;;;33.50;23.50;;;;;;;4.99;96.02;101391.16;4857953;29;20233;-74
2020/12/02 08:08:21;;;;;;;33.30;23.10;;;;;;;4.92;96.49;101399.50;4826944;29;20245;-75
2020/12/02 08:10:46;;;;;;;30.43;22.80;;;;;;;5.00;96.57;101392.81;4871935;29;20226;-74
2020/12/02 08:13:18;;;;;;;32.13;23.67;;;;;;;5.11;95.45;101397.50;4844141;29;20253;-74
2020/12/02 08:15:50;;;;;;;31.70;22.93;;;;;;;5.12;95.52;101393.75;4843349;29;20218;-73
2020/12/02 08:18:27;;;;;;;31.73;23.80;;;;;;;5.08;95.49;101392.53;4859854;29;20194;-74
2020/12/02 08:21:10;;;;;;;33.77;23.33;;;;;;;5.11;95.05;101394.81;4844896;29;20722;-74
2020/12/02 08:23:36;;;;;;;34.63;23.03;;;;;;;5.00;95.16;101389.31;4841166;29;20225;-74
2020/12/02 08:26:09;;;;;;;32.80;22.80;;;;;;;4.97;95.42;101390.53;4842987;29;20220;-75
2020/12/02 08:28:36;;;;;;;32.90;24.40;;;;;;;5.07;95.78;101382.81;4878153;29;20290;-75
2020/12/02 08:31:18;;;;;;;33.00;24.00;;;;;;;5.10;95.13;101393.13;4872954;29;20232;-74
2020/12/02 08:34:25;;;;;;;33.17;23.93;;;;;;;5.04;95.58;101382.44;4862305;29;20638;-75
2020/12/02 08:37:15;;;;;;;32.27;23.10;;;;;;;5.05;96.27;101378.69;4859196;29;20237;-73
2020/12/02 08:39:46;;;;;;;29.57;21.83;;;;;;;5.16;95.77;101365.31;4828699;29;20207;-74
2020/12/02 08:42:32;;;;;;;35.53;24.17;;;;;;;5.03;95.65;101370.81;4846215;29;20308;-73
2020/12/02 08:45:17;;;;;;;30.10;23.03;;;;;;;5.04;95.73;101364.41;4844866;29;20656;-73
2020/12/02 08:47:43;;;;;;;31.63;23.13;;;;;;;5.09;95.75;101367.28;4847061;29;20232;-73
2020/12/02 08:50:19;;;;;;;31.57;23.57;;;;;;;5.16;95.56;101354.56;4846133;29;20202;-74
2020/12/02 08:52:53;;;;;;;30.30;23.30;;;;;;;5.14;95.15;101356.66;4848246;29;20208;-74
2020/12/02 08:55:18;;;;;;;31.17;22.73;;;;;;;5.10;95.44;101352.75;4846378;29;20269;-74
2020/12/02 08:57:46;;;;;;;30.33;23.00;;;;;;;5.16;95.68;101349.19;4847054;29;20296;-73
2020/12/02 09:00:16;;;;;;;30.73;22.93;;;;;;;5.18;94.59;101357.88;4845832;29;20213;-74
2020/12/02 09:02:47;;;;;;;31.00;23.07;;;;;;;5.01;95.58;101354.06;4862551;29;20278;-74
2020/12/02 09:05:12;;;;;;;32.63;23.23;;;;;;;5.04;95.87;101350.94;4861655;29;20232;-74
2020/12/02 09:07:40;;;;;;;31.27;23.70;;;;;;;5.01;95.27;101350.56;4862283;29;20281;-74
2020/12/02 09:10:06;;;;;;;30.87;22.67;;;;;;;5.06;95.25;101354.25;4861690;29;20787;-74
2020/12/02 09:12:32;;;;;;;30.60;22.80;;;;;;;5.21;94.71;101357.44;4862070;29;20202;-74
2020/12/02 09:14:57;;;;;;;31.43;23.53;;;;;;;5.16;94.51;101354.56;4862101;29;20190;-73
2020/12/02 09:17:23;;;;;;;29.53;22.33;;;;;;;5.21;94.48;101349.34;4861573;29;20221;-74
2020/12/02 09:19:50;;;;;;;30.77;23.13;;;;;;;5.31;94.45;101341.63;4861827;29;20273;-74
2020/12/02 09:22:18;;;;;;;31.37;23.43;;;;;;;5.22;94.40;101345.63;4845764;29;20233;-73
2020/12/02 09:24:46;;;;;;;28.87;22.27;;;;;;;5.21;93.75;101332.38;4877164;29;20205;-73
2020/12/02 09:27:12;;;;;;;30.43;22.53;;;;;;;5.19;94.47;101329.91;4850300;29;20284;-74
2020/12/02 09:29:38;;;;;;;31.93;22.57;;;;;;;5.37;93.91;101338.03;4862032;29;20855;-73
2020/12/02 09:32:04;;;;;;;29.23;23.07;;;;;;;5.30;93.50;101334.56;4861010;29;20308;-74
2020/12/02 09:34:32;;;;;;;32.33;23.50;;;;;;;5.31;93.95;101332.69;4862239;29;20193;-74
2020/12/02 09:37:04;;;;;;;30.27;23.10;;;;;;;5.32;93.97;101327.09;4846102;29;20229;-73
2020/12/02 09:39:30;;;;;;;29.47;22.60;;;;;;;5.15;93.91;101336.78;4861261;29;20205;-73
2020/12/02 09:42:34;;;;;;;31.27;23.27;;;;;;;5.30;93.59;101322.97;4860599;29;20775;-74
2020/12/02 09:45:10;;;;;;;33.50;22.93;;;;;;;5.32;93.82;101321.69;4830980;29;20259;-74
2020/12/02 09:47:36;;;;;;;31.43;23.07;;;;;;;5.37;93.11;101321.88;5009333;23;20239;-74
2020/12/02 09:50:03;;;;;;;31.37;22.83;;;;;;;5.34;93.11;101314.22;4874674;29;20591;-74
2020/12/02 09:52:36;;;;;;;32.63;23.57;;;;;;;5.37;93.37;101319.16;4856478;29;20584;-73
2020/12/02 09:55:07;;;;;;;31.77;23.57;;;;;;;5.34;93.55;101308.84;4868871;29;20194;-74
2020/12/02 09:57:35;;;;;;;30.53;23.50;;;;;;;5.42;94.00;101295.06;4859265;29;20213;-73
2020/12/02 10:00:04;;;;;;;30.80;22.93;;;;;;;5.40;94.11;101302.53;4829441;29;20208;-73
2020/12/02 10:02:35;;;;;;;30.30;22.67;;;;;;;5.37;94.66;101294.94;4844895;29;20324;-73
2020/12/02 10:05:34;;;;;;;30.53;22.97;;;;;;;5.49;94.08;101290.44;4860518;29;20288;-73
2020/12/02 10:08:41;;;;;;;31.07;22.77;;;;;;;5.48;94.12;101283.41;4859842;29;20214;-73
2020/12/02 10:11:29;;;;;;;30.60;23.33;;;;;;;5.45;93.81;101273.09;4838250;29;20261;-73
2020/12/02 10:14:03;;;;;;;30.30;22.80;;;;;;;5.53;92.95;101280.84;4884736;29;20201;-74
2020/12/02 10:16:54;;;;;;;32.57;23.07;;;;;;;5.52;92.40;101263.06;4885643;29;20231;-76
2020/12/02 10:19:38;;;;;;;31.03;22.67;;;;;;;5.56;92.68;101264.25;4861868;29;20700;-73
2020/12/02 10:22:12;;;;;;;29.50;22.50;;;;;;;5.56;91.77;101264.25;4889809;29;20232;-74
2020/12/02 10:24:44;;;;;;;30.37;22.60;;;;;;;5.41;92.05;101267.31;4863141;29;20716;-74
2020/12/02 10:27:31;;;;;;;32.20;24.67;;;;;;;5.41;92.84;101256.53;4875623;29;20224;-74
2020/12/02 10:30:12;;;;;;;29.20;21.97;;;;;;;5.32;92.06;101251.69;4876139;29;20704;-73
2020/12/02 10:33:10;;;;;;;28.70;22.83;;;;;;;5.45;92.87;101251.53;4854285;29;20237;-74
2020/12/02 10:35:37;;;;;;;29.03;22.73;;;;;;;5.37;93.15;101243.75;4860411;29;20960;-73
2020/12/02 10:38:35;;;;;;;30.90;23.13;;;;;;;5.55;93.17;101233.81;4878851;29;20197;-74
2020/12/02 10:41:10;;;;;;;30.20;23.73;;;;;;;5.58;92.97;101240.59;4852959;29;20227;-72
2020/12/02 10:43:45;;;;;;;30.13;24.53;;;;;;;5.37;93.32;101227.59;4878731;29;20204;-73
2020/12/02 10:46:16;;;;;;;32.00;23.57;;;;;;;5.42;93.59;101225.03;4871194;29;20235;-73
2020/12/02 10:49:02;;;;;;;30.97;23.60;;;;;;;5.50;92.45;101222.88;4869666;29;20453;-76
2020/12/02 10:51:36;;;;;;;32.43;23.00;;;;;;;5.42;92.56;101204.34;4850412;29;20244;-74
2020/12/02 10:54:03;;;;;;;30.73;23.13;;;;;;;5.50;92.33;101201.31;4875458;29;20197;-75
2020/12/02 10:56:29;;;;;;;30.00;22.37;;;;;;;5.47;92.31;101190.19;4893279;29;20235;-75
2020/12/02 10:58:55;;;;;;;31.33;23.33;;;;;;;5.47;92.31;101190.19;4856175;29;20197;-74
2020/12/02 11:01:21;;;;;;;33.60;23.87;;;;;;;5.35;92.19;101182.03;4836908;29;20239;-74
2020/12/02 11:03:47;;;;;;;30.73;23.27;;;;;;;5.26;93.70;101177.19;4871336;29;20194;-74
2020/12/02 11:06:51;;;;;;;31.43;23.03;;;;;;;5.44;92.57;101177.19;4875481;29;20229;-75
2020/12/02 11:09:52;;;;;;;32.20;22.87;;;;;;;5.27;92.71;101178.81;4889066;29;20237;-74
2020/12/02 11:12:34;;;;;;;33.80;22.80;;;;;;;5.33;92.46;101177.94;4878510;29;20230;-75
2020/12/02 11:15:21;;;;;;;33.33;23.20;;;;;;;5.46;92.25;101178.59;4877908;29;20320;-74
2020/12/02 11:18:07;;;;;;;32.40;23.93;;;;;;;5.37;92.56;101168.34;4856530;29;20319;-75
2020/12/02 11:20:48;;;;;;;32.23;24.17;;;;;;;5.41;91.96;101175.75;4874951;29;20259;-75
2020/12/02 11:23:30;;;;;;;31.27;23.73;;;;;;;5.59;92.11;101169.53;4874283;29;20211;-74
2020/12/02 11:26:20;;;;;;;33.77;25.03;;;;;;;5.67;92.18;101169.19;4858561;29;20214;-74
2020/12/02 11:28:47;;;;;;;33.67;24.07;;;;;;;5.72;91.85;101156.69;4873657;29;20202;-74
2020/12/02 11:31:51;;;;;;;30.33;23.37;;;;;;;5.65;91.51;101155.13;4879007;29;20292;-77
2020/12/02 11:34:29;;;;;;;30.67;22.50;;;;;;;5.71;91.33;101156.91;4856866;29;20287;-75
2020/12/02 11:37:00;;;;;;;32.63;24.40;;;;;;;5.61;91.45;101146.69;4878955;29;20232;-74
2020/12/02 11:39:34;;;;;;;31.73;23.90;;;;;;;5.69;90.76;101146.34;4879539;29;20245;-75
2020/12/02 11:42:26;;;;;;;31.17;24.23;;;;;;;5.65;91.42;101149.75;4862300;29;20255;-74
2020/12/02 11:45:18;;;;;;;31.83;23.60;;;;;;;5.68;90.76;101139.34;4882664;29;20210;-75
2020/12/02 11:48:07;;;;;;;30.80;23.07;;;;;;;5.62;89.85;101136.72;4846692;29;20312;-75
2020/12/02 11:50:45;;;;;;;33.67;23.57;;;;;;;5.70;90.43;101125.63;4865851;29;20315;-74
2020/12/02 11:53:40;;;;;;;31.47;24.27;;;;;;;5.81;90.52;101131.91;4845515;29;20196;-75
2020/12/02 11:56:20;;;;;;;30.40;23.47;;;;;;;5.79;91.05;101123.22;4831175;29;20845;-75
2020/12/02 11:58:49;;;;;;;33.40;25.37;;;;;;;5.73;91.57;101119.81;4861253;29;20183;-75
2020/12/02 12:01:21;;;;;;;34.07;25.17;;;;;;;5.68;92.06;101106.16;4848956;29;20213;-75
2020/12/02 12:03:59;;;;;;;29.87;23.13;;;;;;;5.82;91.70;101109.31;4864671;29;20204;-75
2020/12/02 12:06:25;;;;;;;32.43;23.80;;;;;;;5.95;91.23;101109.09;4882370;29;20236;-76
2020/12/02 12:09:12;;;;;;;32.17;23.90;;;;;;;5.92;91.61;101104.16;4883461;29;20786;-73
2020/12/02 12:11:38;;;;;;;29.27;22.47;;;;;;;5.87;91.15;101101.34;4866286;29;20232;-74